createdAt,value
2024-05-09T00:00:08.339Z,1023.7
2024-05-09T00:01:02.133Z,1023.7
2024-05-09T00:02:01.968Z,1023.8
2024-05-09T00:03:02.893Z,1023.7
2024-05-09T00:04:03.460Z,1023.7
2024-05-09T00:05:02.998Z,1023.7
2024-05-09T00:06:03.111Z,1023.7
2024-05-09T00:07:02.003Z,1023.7
2024-05-09T00:08:02.376Z,1023.7
2024-05-09T00:09:02.431Z,1023.6
2024-05-09T00:10:05.508Z,1023.6
2024-05-09T00:11:02.348Z,1023.6
2024-05-09T00:12:03.709Z,1023.5
2024-05-09T00:13:02.514Z,1023.6
2024-05-09T00:14:02.499Z,1023.5
2024-05-09T00:15:02.518Z,1023.5
2024-05-09T00:16:02.218Z,1023.5
2024-05-09T00:18:04.048Z,1023.5
2024-05-09T00:19:02.398Z,1023.5
2024-05-09T00:20:07.011Z,1023.5
2024-05-09T00:21:02.447Z,1023.5
2024-05-09T00:22:02.229Z,1023.5
2024-05-09T00:23:02.459Z,1023.5
2024-05-09T00:24:02.421Z,1023.5
2024-05-09T00:25:02.241Z,1023.6
2024-05-09T00:26:02.430Z,1023.5
2024-05-09T00:27:03.410Z,1023.6
2024-05-09T00:28:02.128Z,1023.6
2024-05-09T00:29:03.012Z,1023.6
2024-05-09T00:30:02.089Z,1023.6
2024-05-09T00:31:03.407Z,1023.5
2024-05-09T00:33:04.112Z,1023.5
2024-05-09T00:34:02.849Z,1023.5
2024-05-09T00:35:02.372Z,1023.4
2024-05-09T00:36:02.113Z,1023.5
2024-05-09T00:37:02.342Z,1023.4
2024-05-09T00:38:04.643Z,1023.5
2024-05-09T00:39:02.486Z,1023.4
2024-05-09T00:40:02.370Z,1023.4
2024-05-09T00:41:02.837Z,1023.5
2024-05-09T00:42:02.520Z,1023.5
2024-05-09T00:43:02.650Z,1023.4
2024-05-09T00:44:02.536Z,1023.4
2024-05-09T00:45:02.833Z,1023.4
2024-05-09T00:46:02.621Z,1023.4
2024-05-09T00:47:02.803Z,1023.4
2024-05-09T00:48:03.945Z,1023.4
2024-05-09T00:49:02.150Z,1023.4
2024-05-09T00:50:07.713Z,1023.4
2024-05-09T00:51:02.057Z,1023.4
2024-05-09T00:52:01.990Z,1023.4
2024-05-09T00:53:02.120Z,1023.4
2024-05-09T00:54:01.967Z,1023.4
2024-05-09T00:55:01.922Z,1023.4
2024-05-09T00:56:03.292Z,1023.4
2024-05-09T00:57:01.977Z,1023.4
2024-05-09T00:58:01.838Z,1023.4
2024-05-09T00:59:01.885Z,1023.5
2024-05-09T01:00:02.495Z,1023.5
2024-05-09T01:01:03.113Z,1023.5
2024-05-09T01:02:02.653Z,1023.5
2024-05-09T01:03:04.236Z,1023.5
2024-05-09T01:04:02.396Z,1023.5
2024-05-09T01:05:03.253Z,1023.5
2024-05-09T01:06:02.203Z,1023.4
2024-05-09T01:07:02.688Z,1023.5
2024-05-09T01:08:03.026Z,1023.4
2024-05-09T01:09:02.073Z,1023.4
2024-05-09T01:10:01.723Z,1023.5
2024-05-09T01:11:02.627Z,1023.5
2024-05-09T01:12:03.235Z,1023.4
2024-05-09T01:13:02.090Z,1023.5
2024-05-09T01:14:02.713Z,1023.5
2024-05-09T01:15:02.411Z,1023.4
2024-05-09T01:16:02.755Z,1023.5
2024-05-09T01:17:02.307Z,1023.5
2024-05-09T01:18:03.399Z,1023.4
2024-05-09T01:19:03.231Z,1023.5
2024-05-09T01:20:02.666Z,1023.5
2024-05-09T01:21:02.691Z,1023.5
2024-05-09T01:22:04.025Z,1023.5
2024-05-09T01:23:01.908Z,1023.5
2024-05-09T01:24:02.741Z,1023.6
2024-05-09T01:25:01.636Z,1023.6
2024-05-09T01:26:02.681Z,1023.6
2024-05-09T01:27:02.403Z,1023.6
2024-05-09T01:28:02.763Z,1023.6
2024-05-09T01:29:02.710Z,1023.6
2024-05-09T01:30:09.502Z,1023.6
2024-05-09T01:31:01.747Z,1023.6
2024-05-09T01:32:02.214Z,1023.6
2024-05-09T01:33:05.052Z,1023.6
2024-05-09T01:34:02.954Z,1023.6
2024-05-09T01:35:02.680Z,1023.6
2024-05-09T01:36:02.853Z,1023.6
2024-05-09T01:37:02.501Z,1023.6
2024-05-09T01:38:03.006Z,1023.6
2024-05-09T01:39:02.419Z,1023.5
2024-05-09T01:40:02.090Z,1023.6
2024-05-09T01:41:02.990Z,1023.6
2024-05-09T01:42:01.675Z,1023.6
2024-05-09T01:43:02.218Z,1023.6
2024-05-09T01:44:02.082Z,1023.6
2024-05-09T01:45:02.793Z,1023.6
2024-05-09T01:46:02.531Z,1023.6
2024-05-09T01:47:02.672Z,1023.6
2024-05-09T01:48:04.594Z,1023.6
2024-05-09T01:49:02.946Z,1023.6
2024-05-09T01:50:03.828Z,1023.6
2024-05-09T01:51:02.044Z,1023.5
2024-05-09T01:52:02.528Z,1023.6
2024-05-09T01:53:02.332Z,1023.6
2024-05-09T01:54:02.070Z,1023.6
2024-05-09T01:55:07.308Z,1023.5
2024-05-09T01:56:02.091Z,1023.6
2024-05-09T01:57:02.169Z,1023.6
2024-05-09T01:58:01.891Z,1023.6
2024-05-09T01:59:02.281Z,1023.6
2024-05-09T02:00:02.354Z,1023.6
2024-05-09T02:01:02.771Z,1023.6
2024-05-09T02:02:02.278Z,1023.6
2024-05-09T02:03:03.257Z,1023.6
2024-05-09T02:04:03.629Z,1023.6
2024-05-09T02:05:02.822Z,1023.6
2024-05-09T02:06:02.493Z,1023.6
2024-05-09T02:07:03.086Z,1023.7
2024-05-09T02:08:02.023Z,1023.6
2024-05-09T02:09:02.240Z,1023.7
2024-05-09T02:10:03.731Z,1023.6
2024-05-09T02:11:02.234Z,1023.6
2024-05-09T02:12:02.906Z,1023.6
2024-05-09T02:13:01.690Z,1023.6
2024-05-09T02:14:03.494Z,1023.6
2024-05-09T02:15:02.439Z,1023.6
2024-05-09T02:16:02.823Z,1023.7
2024-05-09T02:17:02.840Z,1023.6
2024-05-09T02:18:03.464Z,1023.6
2024-05-09T02:19:02.596Z,1023.7
2024-05-09T02:20:02.990Z,1023.6
2024-05-09T02:21:02.161Z,1023.7
2024-05-09T02:22:02.614Z,1023.7
2024-05-09T02:23:02.720Z,1023.6
2024-05-09T02:24:02.785Z,1023.7
2024-05-09T02:25:02.552Z,1023.6
2024-05-09T02:26:02.950Z,1023.6
2024-05-09T02:27:01.633Z,1023.6
2024-05-09T02:28:03.087Z,1023.6
2024-05-09T02:29:02.052Z,1023.6
2024-05-09T02:30:01.831Z,1023.6
2024-05-09T02:31:01.856Z,1023.6
2024-05-09T02:32:02.288Z,1023.6
2024-05-09T02:33:03.071Z,1023.6
2024-05-09T02:34:04.207Z,1023.6
2024-05-09T02:35:02.556Z,1023.6
2024-05-09T02:36:02.381Z,1023.6
2024-05-09T02:37:02.768Z,1023.7
2024-05-09T02:38:02.791Z,1023.6
2024-05-09T02:39:03.015Z,1023.6
2024-05-09T02:40:01.725Z,1023.6
2024-05-09T02:41:02.431Z,1023.6
2024-05-09T02:42:02.373Z,1023.6
2024-05-09T02:43:02.098Z,1023.6
2024-05-09T02:44:02.001Z,1023.7
2024-05-09T02:45:01.818Z,1023.6
2024-05-09T02:46:03.137Z,1023.6
2024-05-09T02:48:04.123Z,1023.5
2024-05-09T02:49:02.373Z,1023.5
2024-05-09T02:50:05.946Z,1023.5
2024-05-09T02:51:01.975Z,1023.6
2024-05-09T02:52:01.906Z,1023.5
2024-05-09T02:53:01.969Z,1023.6
2024-05-09T02:54:02.115Z,1023.5
2024-05-09T02:55:01.826Z,1023.6
2024-05-09T02:56:02.696Z,1023.5
2024-05-09T02:57:02.572Z,1023.6
2024-05-09T02:58:02.805Z,1023.6
2024-05-09T02:59:02.639Z,1023.6
2024-05-09T03:00:05.872Z,1023.6
2024-05-09T03:01:02.584Z,1023.6
2024-05-09T03:02:02.615Z,1023.6
2024-05-09T03:03:03.458Z,1023.6
2024-05-09T03:04:02.842Z,1023.6
2024-05-09T03:05:01.710Z,1023.6
2024-05-09T03:06:03.087Z,1023.6
2024-05-09T03:07:01.969Z,1023.6
2024-05-09T03:08:02.716Z,1023.6
2024-05-09T03:09:02.685Z,1023.5
2024-05-09T03:10:02.705Z,1023.5
2024-05-09T03:11:02.367Z,1023.6
2024-05-09T03:12:02.645Z,1023.6
2024-05-09T03:13:02.450Z,1023.6
2024-05-09T03:14:02.361Z,1023.6
2024-05-09T03:15:02.322Z,1023.6
2024-05-09T03:16:01.997Z,1023.7
2024-05-09T03:17:02.195Z,1023.6
2024-05-09T03:18:03.732Z,1023.6
2024-05-09T03:19:02.095Z,1023.6
2024-05-09T03:20:04.087Z,1023.6
2024-05-09T03:21:01.979Z,1023.6
2024-05-09T03:22:02.146Z,1023.6
2024-05-09T03:23:02.043Z,1023.6
2024-05-09T03:24:01.979Z,1023.6
2024-05-09T03:25:01.822Z,1023.6
2024-05-09T03:26:02.861Z,1023.6
2024-05-09T03:27:02.545Z,1023.6
2024-05-09T03:28:02.688Z,1023.6
2024-05-09T03:29:03.679Z,1023.6
2024-05-09T03:30:07.425Z,1023.6
2024-05-09T03:31:02.256Z,1023.6
2024-05-09T03:32:04.133Z,1023.6
2024-05-09T03:33:02.311Z,1023.7
2024-05-09T03:34:04.008Z,1023.6
2024-05-09T03:35:01.931Z,1023.6
2024-05-09T03:36:11.036Z,1023.6
2024-05-09T03:37:02.000Z,1023.6
2024-05-09T03:38:01.933Z,1023.6
2024-05-09T03:39:01.678Z,1023.7
2024-05-09T03:40:07.301Z,1023.6
2024-05-09T03:41:02.252Z,1023.6
2024-05-09T03:42:01.901Z,1023.6
2024-05-09T03:43:02.432Z,1023.6
2024-05-09T03:44:02.426Z,1023.6
2024-05-09T03:45:02.128Z,1023.6
2024-05-09T03:46:01.943Z,1023.7
2024-05-09T03:47:02.058Z,1023.6
2024-05-09T03:48:03.254Z,1023.7
2024-05-09T03:49:02.615Z,1023.6
2024-05-09T03:50:05.760Z,1023.7
2024-05-09T03:51:01.762Z,1023.6
2024-05-09T03:52:02.725Z,1023.7
2024-05-09T03:53:02.880Z,1023.6
2024-05-09T03:54:02.737Z,1023.7
2024-05-09T03:55:01.637Z,1023.7
2024-05-09T03:56:02.947Z,1023.7
2024-05-09T03:57:02.628Z,1023.7
2024-05-09T03:58:02.551Z,1023.6
2024-05-09T03:59:02.490Z,1023.7
2024-05-09T04:00:17.875Z,1023.7
2024-05-09T04:01:02.710Z,1023.7
2024-05-09T04:02:02.789Z,1023.7
2024-05-09T04:03:04.395Z,1023.7
2024-05-09T04:04:02.368Z,1023.7
2024-05-09T04:05:02.938Z,1023.7
2024-05-09T04:06:01.614Z,1023.7
2024-05-09T04:07:01.869Z,1023.7
2024-05-09T04:08:03.326Z,1023.8
2024-05-09T04:09:02.118Z,1023.7
2024-05-09T04:10:02.226Z,1023.8
2024-05-09T04:11:02.454Z,1023.7
2024-05-09T04:12:02.788Z,1023.7
2024-05-09T04:13:04.632Z,1023.7
2024-05-09T04:14:02.504Z,1023.7
2024-05-09T04:15:02.611Z,1023.8
2024-05-09T04:16:02.897Z,1023.8
2024-05-09T04:17:02.260Z,1023.8
2024-05-09T04:18:03.738Z,1023.8
2024-05-09T04:19:02.045Z,1023.8
2024-05-09T04:20:02.309Z,1023.8
2024-05-09T04:21:02.869Z,1023.8
2024-05-09T04:22:02.629Z,1023.9
2024-05-09T04:23:02.442Z,1023.9
2024-05-09T04:24:02.623Z,1023.8
2024-05-09T04:25:02.334Z,1023.9
2024-05-09T04:26:02.685Z,1023.9
2024-05-09T04:27:02.386Z,1023.9
2024-05-09T04:28:02.690Z,1023.9
2024-05-09T04:29:02.632Z,1023.9
2024-05-09T04:30:02.400Z,1023.9
2024-05-09T04:31:03.274Z,1023.8
2024-05-09T04:33:03.272Z,1023.8
2024-05-09T04:34:03.566Z,1023.9
2024-05-09T04:35:02.695Z,1023.9
2024-05-09T04:36:03.333Z,1023.9
2024-05-09T04:37:02.014Z,1023.9
2024-05-09T04:38:02.155Z,1023.9
2024-05-09T04:39:01.861Z,1024
2024-05-09T04:40:05.370Z,1023.9
2024-05-09T04:41:02.471Z,1024
2024-05-09T04:42:02.301Z,1024
2024-05-09T04:43:02.468Z,1024
2024-05-09T04:44:02.351Z,1024
2024-05-09T04:45:02.424Z,1024
2024-05-09T04:46:02.095Z,1024
2024-05-09T04:47:02.326Z,1024
2024-05-09T04:48:04.239Z,1024
2024-05-09T04:49:03.375Z,1024
2024-05-09T04:50:02.559Z,1024.1
2024-05-09T04:51:03.512Z,1024
2024-05-09T04:52:02.257Z,1024
2024-05-09T04:53:02.530Z,1024.1
2024-05-09T04:54:02.354Z,1024.1
2024-05-09T04:55:02.251Z,1024.1
2024-05-09T04:56:02.276Z,1024.1
2024-05-09T04:57:01.903Z,1024.1
2024-05-09T04:58:02.788Z,1024
2024-05-09T04:59:02.784Z,1024.1
2024-05-09T05:00:18.208Z,1024
2024-05-09T05:01:02.573Z,1024
2024-05-09T05:02:02.892Z,1024
2024-05-09T05:03:03.551Z,1024.1
2024-05-09T05:04:02.851Z,1024
2024-05-09T05:05:03.233Z,1024.1
2024-05-09T05:06:02.526Z,1024.1
2024-05-09T05:07:03.522Z,1024.1
2024-05-09T05:08:02.309Z,1024.1
2024-05-09T05:09:02.711Z,1024
2024-05-09T05:10:06.042Z,1024
2024-05-09T05:11:02.608Z,1024.1
2024-05-09T05:12:02.921Z,1024
2024-05-09T05:13:01.631Z,1024
2024-05-09T05:14:02.583Z,1024
2024-05-09T05:15:02.595Z,1024
2024-05-09T05:16:02.258Z,1024.1
2024-05-09T05:17:02.560Z,1024.1
2024-05-09T05:18:03.055Z,1024.1
2024-05-09T05:19:02.138Z,1024.2
2024-05-09T05:20:04.935Z,1024.1
2024-05-09T05:21:02.728Z,1024.1
2024-05-09T05:22:02.389Z,1024.1
2024-05-09T05:23:02.624Z,1024.1
2024-05-09T05:24:02.319Z,1024.1
2024-05-09T05:25:02.532Z,1024.1
2024-05-09T05:26:02.979Z,1024.2
2024-05-09T05:27:01.665Z,1024.1
2024-05-09T05:28:03.038Z,1024.2
2024-05-09T05:29:01.926Z,1024.2
2024-05-09T05:30:01.678Z,1024.2
2024-05-09T05:31:01.670Z,1024.2
2024-05-09T05:32:02.363Z,1024.2
2024-05-09T05:33:03.290Z,1024.2
2024-05-09T05:34:02.330Z,1024.2
2024-05-09T05:35:02.367Z,1024.3
2024-05-09T05:36:02.251Z,1024.3
2024-05-09T05:37:02.073Z,1024.3
2024-05-09T05:38:02.560Z,1024.3
2024-05-09T05:39:02.828Z,1024.3
2024-05-09T05:40:04.336Z,1024.2
2024-05-09T05:41:02.237Z,1024.3
2024-05-09T05:42:02.063Z,1024.2
2024-05-09T05:43:02.063Z,1024.2
2024-05-09T05:44:01.953Z,1024.3
2024-05-09T05:45:01.760Z,1024.3
2024-05-09T05:46:02.899Z,1024.2
2024-05-09T05:48:02.936Z,1024.3
2024-05-09T05:49:02.121Z,1024.3
2024-05-09T05:50:03.021Z,1024.3
2024-05-09T05:51:05.222Z,1024.2
2024-05-09T05:52:01.921Z,1024.3
2024-05-09T05:53:03.149Z,1024.2
2024-05-09T05:54:02.034Z,1024.2
2024-05-09T05:55:02.533Z,1024.2
2024-05-09T05:56:02.626Z,1024.2
2024-05-09T05:57:02.536Z,1024.2
2024-05-09T05:58:03.187Z,1024.2
2024-05-09T05:59:02.256Z,1024.3
2024-05-09T06:00:15.067Z,1024.2
2024-05-09T06:01:01.808Z,1024.2
2024-05-09T06:02:02.138Z,1024.3
2024-05-09T06:03:03.441Z,1024.2
2024-05-09T06:04:02.343Z,1024.2
2024-05-09T06:05:03.222Z,1024.2
2024-05-09T06:06:02.282Z,1024.2
2024-05-09T06:07:02.201Z,1024.2
2024-05-09T06:08:02.149Z,1024.2
2024-05-09T06:09:02.000Z,1024.3
2024-05-09T06:10:01.658Z,1024.2
2024-05-09T06:11:02.552Z,1024.2
2024-05-09T06:12:03.515Z,1024.3
2024-05-09T06:13:02.301Z,1024.2
2024-05-09T06:14:02.399Z,1024.2
2024-05-09T06:15:02.162Z,1024.2
2024-05-09T06:16:01.834Z,1024.2
2024-05-09T06:17:02.109Z,1024.3
2024-05-09T06:18:03.124Z,1024.3
2024-05-09T06:19:02.038Z,1024.3
2024-05-09T06:20:02.509Z,1024.2
2024-05-09T06:21:02.679Z,1024.3
2024-05-09T06:22:02.415Z,1024.2
2024-05-09T06:23:02.930Z,1024.2
2024-05-09T06:24:06.935Z,1024.3
2024-05-09T06:25:02.584Z,1024.2
2024-05-09T06:26:02.438Z,1024.3
2024-05-09T06:27:02.978Z,1024.3
2024-05-09T06:28:01.950Z,1024.3
2024-05-09T06:29:02.070Z,1024.2
2024-05-09T06:30:01.767Z,1024.2
2024-05-09T06:31:01.999Z,1024.2
2024-05-09T06:32:03.036Z,1024.3
2024-05-09T06:33:02.414Z,1024.2
2024-05-09T06:34:03.206Z,1024.3
2024-05-09T06:35:02.017Z,1024.2
2024-05-09T06:36:02.338Z,1024.2
2024-05-09T06:37:01.971Z,1024.2
2024-05-09T06:38:03.616Z,1024.2
2024-05-09T06:39:02.447Z,1024.3
2024-05-09T06:40:04.217Z,1024.2
2024-05-09T06:41:02.511Z,1024.2
2024-05-09T06:42:02.437Z,1024.3
2024-05-09T06:43:02.317Z,1024.2
2024-05-09T06:44:02.251Z,1024.2
2024-05-09T06:45:02.261Z,1024.2
2024-05-09T06:46:01.899Z,1024.2
2024-05-09T06:47:01.960Z,1024.2
2024-05-09T06:48:02.225Z,1024.2
2024-05-09T06:49:02.918Z,1024.2
2024-05-09T06:50:01.845Z,1024.2
2024-05-09T06:51:02.159Z,1024.1
2024-05-09T06:52:01.866Z,1024.2
2024-05-09T06:53:03.159Z,1024.2
2024-05-09T06:54:01.873Z,1024.2
2024-05-09T06:55:02.065Z,1024.2
2024-05-09T06:56:01.837Z,1024.2
2024-05-09T06:57:02.017Z,1024.2
2024-05-09T06:58:01.762Z,1024.2
2024-05-09T06:59:02.122Z,1024.2
2024-05-09T07:00:08.316Z,1024.2
2024-05-09T07:01:02.228Z,1024.1
2024-05-09T07:02:01.729Z,1024.2
2024-05-09T07:03:06.648Z,1024.3
2024-05-09T07:04:02.928Z,1024.2
2024-05-09T07:05:02.525Z,1024.2
2024-05-09T07:06:03.393Z,1024.2
2024-05-09T07:07:02.097Z,1024.1
2024-05-09T07:08:01.980Z,1024.2
2024-05-09T07:09:01.849Z,1024.2
2024-05-09T07:10:06.242Z,1024.2
2024-05-09T07:11:02.396Z,1024.2
2024-05-09T07:12:02.739Z,1024.2
2024-05-09T07:13:02.995Z,1024.1
2024-05-09T07:14:01.835Z,1024.1
2024-05-09T07:15:01.846Z,1024.1
2024-05-09T07:16:02.739Z,1024.2
2024-05-09T07:17:03.000Z,1024.1
2024-05-09T07:18:02.983Z,1024.1
2024-05-09T07:19:02.526Z,1024.1
2024-05-09T07:20:02.578Z,1024.1
2024-05-09T07:21:02.709Z,1024.1
2024-05-09T07:22:02.435Z,1024.2
2024-05-09T07:23:03.498Z,1024.1
2024-05-09T07:24:02.191Z,1024.2
2024-05-09T07:25:02.343Z,1024.2
2024-05-09T07:26:02.599Z,1024.2
2024-05-09T07:27:02.589Z,1024.2
2024-05-09T07:28:02.530Z,1024.2
2024-05-09T07:29:02.490Z,1024.2
2024-05-09T07:30:07.283Z,1024.2
2024-05-09T07:31:02.003Z,1024.2
2024-05-09T07:32:02.266Z,1024.2
2024-05-09T07:33:04.393Z,1024.2
2024-05-09T07:34:02.833Z,1024.2
2024-05-09T07:35:02.837Z,1024.2
2024-05-09T07:36:02.745Z,1024.2
2024-05-09T07:37:02.527Z,1024.2
2024-05-09T07:38:02.639Z,1024.1
2024-05-09T07:39:02.478Z,1024.1
2024-05-09T07:40:03.078Z,1024.2
2024-05-09T07:41:02.594Z,1024.1
2024-05-09T07:42:02.979Z,1024.2
2024-05-09T07:43:01.619Z,1024.2
2024-05-09T07:44:02.563Z,1024.1
2024-05-09T07:45:52.244Z,1024.1
2024-05-09T07:52:24.210Z,1024.1
2024-05-09T07:53:21.045Z,1024.1
2024-05-09T07:53:37.097Z,1024.1
2024-05-09T07:53:48.273Z,1024.2
2024-05-09T07:55:03.593Z,1024.1
2024-05-09T07:56:03.148Z,1024.1
2024-05-09T07:57:02.586Z,1024.1
2024-05-09T07:58:02.634Z,1024.1
2024-05-09T07:59:02.585Z,1024
2024-05-09T08:00:03.279Z,1024.1
2024-05-09T08:01:02.407Z,1024
2024-05-09T08:02:02.713Z,1024
2024-05-09T08:03:02.567Z,1024.1
2024-05-09T08:04:02.897Z,1024
2024-05-09T08:05:02.276Z,1024
2024-05-09T08:06:02.063Z,1024
2024-05-09T08:07:02.277Z,1024
2024-05-09T08:08:01.965Z,1024.1
2024-05-09T08:09:19.399Z,1024.1
2024-05-09T08:10:01.970Z,1024
2024-05-09T08:11:01.825Z,1024.1
2024-05-09T08:12:02.621Z,1024.1
2024-05-09T08:13:02.794Z,1024.1
2024-05-09T08:14:02.530Z,1024.1
2024-05-09T08:15:02.571Z,1024.1
2024-05-09T08:16:02.621Z,1024.1
2024-05-09T08:18:03.477Z,1024.1
2024-05-09T08:19:02.635Z,1024.1
2024-05-09T08:20:05.977Z,1024.2
2024-05-09T08:21:01.966Z,1024.1
2024-05-09T08:22:01.880Z,1024.1
2024-05-09T08:23:01.932Z,1024
2024-05-09T08:24:02.739Z,1024
2024-05-09T08:25:01.741Z,1024.1
2024-05-09T08:26:02.543Z,1024
2024-05-09T08:27:02.433Z,1024
2024-05-09T08:28:02.485Z,1024
2024-05-09T08:29:02.274Z,1024.1
2024-05-09T08:30:02.232Z,1024.1
2024-05-09T08:31:07.808Z,1024
2024-05-09T08:33:02.314Z,1024
2024-05-09T08:34:02.833Z,1024
2024-05-09T08:35:01.778Z,1024
2024-05-09T08:36:03.004Z,1024
2024-05-09T08:37:22.248Z,1024
2024-05-09T08:38:02.798Z,1024
2024-05-09T08:39:01.879Z,1024
2024-05-09T08:40:08.697Z,1024.1
2024-05-09T08:41:01.793Z,1024.1
2024-05-09T08:42:02.617Z,1024.1
2024-05-09T08:43:02.935Z,1024.1
2024-05-09T08:44:01.990Z,1024.1
2024-05-09T08:45:01.800Z,1024.1
2024-05-09T08:46:03.194Z,1024.1
2024-05-09T08:48:03.017Z,1024.1
2024-05-09T08:49:02.599Z,1024.1
2024-05-09T08:50:04.080Z,1024.1
2024-05-09T08:51:01.897Z,1024.1
2024-05-09T08:52:02.713Z,1024.2
2024-05-09T08:53:02.611Z,1024.2
2024-05-09T08:54:02.765Z,1024.1
2024-05-09T08:55:02.637Z,1024.1
2024-05-09T08:56:02.518Z,1024.1
2024-05-09T08:57:02.348Z,1024.1
2024-05-09T08:58:02.316Z,1024.2
2024-05-09T08:59:02.385Z,1024.1
2024-05-09T09:00:06.235Z,1024.1
2024-05-09T09:01:03.012Z,1024.2
2024-05-09T09:02:02.424Z,1024.2
2024-05-09T09:03:02.813Z,1024.1
2024-05-09T09:04:02.945Z,1024.1
2024-05-09T09:05:02.251Z,1024.1
2024-05-09T09:06:02.256Z,1024.1
2024-05-09T09:07:04.354Z,1024.1
2024-05-09T09:08:02.035Z,1024.1
2024-05-09T09:09:02.534Z,1024.1
2024-05-09T09:10:05.737Z,1024
2024-05-09T09:11:02.207Z,1024.1
2024-05-09T09:12:02.194Z,1024.1
2024-05-09T09:13:02.022Z,1024.1
2024-05-09T09:14:01.854Z,1024.1
2024-05-09T09:15:01.758Z,1024.1
2024-05-09T09:16:03.177Z,1024.1
2024-05-09T09:18:02.738Z,1024
2024-05-09T09:19:03.201Z,1024
2024-05-09T09:20:02.513Z,1024.1
2024-05-09T09:21:02.825Z,1024
2024-05-09T09:22:02.768Z,1024
2024-05-09T09:23:03.116Z,1024
2024-05-09T09:24:01.873Z,1024
2024-05-09T09:25:02.331Z,1024
2024-05-09T09:26:02.367Z,1024
2024-05-09T09:27:02.148Z,1024
2024-05-09T09:28:02.062Z,1024
2024-05-09T09:29:01.891Z,1024.1
2024-05-09T09:30:03.586Z,1023.9
2024-05-09T09:31:02.544Z,1023.9
2024-05-09T09:32:02.493Z,1024
2024-05-09T09:33:03.143Z,1023.9
2024-05-09T09:34:02.744Z,1023.9
2024-05-09T09:35:02.806Z,1024
2024-05-09T09:36:02.518Z,1024
2024-05-09T09:37:02.803Z,1024
2024-05-09T09:38:03.296Z,1024
2024-05-09T09:39:02.127Z,1024
2024-05-09T09:40:02.087Z,1024
2024-05-09T09:41:02.604Z,1024.1
2024-05-09T09:42:02.388Z,1024
2024-05-09T09:43:02.694Z,1024
2024-05-09T09:44:02.535Z,1023.9
2024-05-09T09:45:06.336Z,1024
2024-05-09T09:46:02.262Z,1024
2024-05-09T09:47:02.617Z,1024
2024-05-09T09:48:02.756Z,1024
2024-05-09T09:49:03.491Z,1024
2024-05-09T09:50:07.148Z,1024
2024-05-09T09:51:02.454Z,1024
2024-05-09T09:52:02.372Z,1024.1
2024-05-09T09:53:02.274Z,1024
2024-05-09T09:54:02.058Z,1024
2024-05-09T09:55:02.734Z,1024
2024-05-09T09:56:03.307Z,1024
2024-05-09T09:57:01.970Z,1024
2024-05-09T09:58:02.301Z,1024
2024-05-09T09:59:02.041Z,1023.9
2024-05-09T10:00:14.574Z,1023.9
2024-05-09T10:01:02.629Z,1023.9
2024-05-09T10:02:02.479Z,1023.9
2024-05-09T10:03:02.843Z,1024
2024-05-09T10:04:03.369Z,1023.9
2024-05-09T10:05:02.658Z,1023.9
2024-05-09T10:06:02.785Z,1024
2024-05-09T10:07:02.749Z,1023.9
2024-05-09T10:08:03.114Z,1023.9
2024-05-09T10:09:01.808Z,1023.9
2024-05-09T10:10:06.946Z,1023.9
2024-05-09T10:11:02.169Z,1023.9
2024-05-09T10:12:02.299Z,1023.9
2024-05-09T10:13:02.661Z,1023.9
2024-05-09T10:14:02.402Z,1023.8
2024-05-09T10:15:02.656Z,1023.9
2024-05-09T10:16:02.505Z,1023.8
2024-05-09T10:18:03.418Z,1023.8
2024-05-09T10:19:02.653Z,1023.9
2024-05-09T10:20:11.804Z,1023.9
2024-05-09T10:21:01.869Z,1023.8
2024-05-09T10:22:02.937Z,1023.9
2024-05-09T10:23:02.616Z,1023.8
2024-05-09T10:24:02.550Z,1023.8
2024-05-09T10:25:05.894Z,1023.8
2024-05-09T10:26:02.120Z,1023.9
2024-05-09T10:27:01.952Z,1023.9
2024-05-09T10:28:03.128Z,1023.8
2024-05-09T10:29:01.916Z,1023.9
2024-05-09T10:30:21.239Z,1023.8
2024-05-09T10:31:02.350Z,1023.9
2024-05-09T10:32:02.065Z,1023.8
2024-05-09T10:33:02.612Z,1023.7
2024-05-09T10:34:04.122Z,1023.8
2024-05-09T10:35:02.456Z,1023.7
2024-05-09T10:36:02.688Z,1023.7
2024-05-09T10:37:05.620Z,1023.7
2024-05-09T10:38:02.401Z,1023.8
2024-05-09T10:39:02.603Z,1023.8
2024-05-09T10:40:07.189Z,1023.8
2024-05-09T10:41:02.357Z,1023.8
2024-05-09T10:42:02.986Z,1023.8
2024-05-09T10:43:06.833Z,1023.8
2024-05-09T10:44:02.534Z,1023.8
2024-05-09T10:45:02.721Z,1023.7
2024-05-09T10:46:02.721Z,1023.7
2024-05-09T10:48:03.093Z,1023.8
2024-05-09T10:49:08.406Z,1023.7
2024-05-09T10:50:02.366Z,1023.7
2024-05-09T10:51:02.304Z,1023.7
2024-05-09T10:52:02.459Z,1023.6
2024-05-09T10:53:02.151Z,1023.7
2024-05-09T10:54:01.946Z,1023.7
2024-05-09T10:55:06.495Z,1023.7
2024-05-09T10:56:02.228Z,1023.6
2024-05-09T10:57:02.497Z,1023.6
2024-05-09T10:58:02.258Z,1023.6
2024-05-09T10:59:02.364Z,1023.6
2024-05-09T11:00:10.135Z,1023.6
2024-05-09T11:01:07.956Z,1023.5
2024-05-09T11:03:02.137Z,1023.5
2024-05-09T11:04:02.748Z,1023.5
2024-05-09T11:05:03.483Z,1023.6
2024-05-09T11:06:02.180Z,1023.5
2024-05-09T11:07:05.993Z,1023.5
2024-05-09T11:08:01.727Z,1023.5
2024-05-09T11:09:01.943Z,1023.5
2024-05-09T11:10:01.850Z,1023.5
2024-05-09T11:11:02.141Z,1023.4
2024-05-09T11:12:02.086Z,1023.5
2024-05-09T11:13:02.267Z,1023.5
2024-05-09T11:14:02.013Z,1023.5
2024-05-09T11:15:02.749Z,1023.5
2024-05-09T11:16:02.742Z,1023.5
2024-05-09T11:18:03.024Z,1023.5
2024-05-09T11:19:02.486Z,1023.5
2024-05-09T11:20:10.833Z,1023.4
2024-05-09T11:21:02.754Z,1023.5
2024-05-09T11:22:02.938Z,1023.4
2024-05-09T11:23:01.715Z,1023.4
2024-05-09T11:24:02.865Z,1023.4
2024-05-09T11:25:02.727Z,1023.4
2024-05-09T11:26:03.310Z,1023.4
2024-05-09T11:27:02.030Z,1023.4
2024-05-09T11:28:02.230Z,1023.4
2024-05-09T11:29:02.010Z,1023.4
2024-05-09T11:30:01.948Z,1023.4
2024-05-09T11:31:01.939Z,1023.5
2024-05-09T11:32:02.281Z,1023.4
2024-05-09T11:33:02.929Z,1023.5
2024-05-09T11:34:01.756Z,1023.5
2024-05-09T11:35:01.722Z,1023.4
2024-05-09T11:36:02.738Z,1023.4
2024-05-09T11:37:02.717Z,1023.4
2024-05-09T11:38:02.552Z,1023.4
2024-05-09T11:39:02.442Z,1023.4
2024-05-09T11:40:06.915Z,1023.4
2024-05-09T11:41:01.883Z,1023.4
2024-05-09T11:42:03.306Z,1023.4
2024-05-09T11:43:02.306Z,1023.4
2024-05-09T11:44:02.214Z,1023.3
2024-05-09T11:45:02.083Z,1023.4
2024-05-09T11:46:01.938Z,1023.4
2024-05-09T11:47:01.775Z,1023.4
2024-05-09T11:48:03.456Z,1023.4
2024-05-09T11:49:03.206Z,1023.4
2024-05-09T11:50:12.885Z,1023.3
2024-05-09T11:51:02.570Z,1023.4
2024-05-09T11:52:02.518Z,1023.3
2024-05-09T11:53:02.537Z,1023.3
2024-05-09T11:54:02.229Z,1023.3
2024-05-09T11:55:02.535Z,1023.4
2024-05-09T11:56:02.847Z,1023.3
2024-05-09T11:57:01.675Z,1023.4
2024-05-09T11:58:02.804Z,1023.3
2024-05-09T11:59:02.560Z,1023.3
2024-05-09T12:00:09.579Z,1023.3
2024-05-09T12:01:03.557Z,1023.3
2024-05-09T12:02:03.007Z,1023.3
2024-05-09T12:03:02.006Z,1023.3
2024-05-09T12:04:02.909Z,1023.3
2024-05-09T12:05:02.570Z,1023.3
2024-05-09T12:06:02.969Z,1023.2
2024-05-09T12:07:02.325Z,1023.3
2024-05-09T12:08:02.881Z,1023.3
2024-05-09T12:09:02.567Z,1023.2
2024-05-09T12:10:03.429Z,1023.2
2024-05-09T12:11:03.813Z,1023.3
2024-05-09T12:12:02.531Z,1023.2
2024-05-09T12:13:07.931Z,1023.2
2024-05-09T12:14:01.871Z,1023.1
2024-05-09T12:15:02.322Z,1023.2
2024-05-09T12:16:03.003Z,1023.2
2024-05-09T12:17:02.036Z,1023.2
2024-05-09T12:18:05.079Z,1023.2
2024-05-09T12:19:02.722Z,1023.2
2024-05-09T12:20:09.191Z,1023.2
2024-05-09T12:21:01.738Z,1023.1
2024-05-09T12:22:03.071Z,1023.1
2024-05-09T12:23:01.803Z,1023.1
2024-05-09T12:24:02.935Z,1023.1
2024-05-09T12:25:02.721Z,1023.1
2024-05-09T12:26:02.479Z,1023.1
2024-05-09T12:27:02.450Z,1023.1
2024-05-09T12:28:03.043Z,1023
2024-05-09T12:29:01.844Z,1023.1
2024-05-09T12:30:04.580Z,1023.1
2024-05-09T12:32:02.338Z,1023
2024-05-09T12:33:02.472Z,1023
2024-05-09T12:34:02.728Z,1023
2024-05-09T12:35:03.208Z,1023
2024-05-09T12:36:01.867Z,1023
2024-05-09T12:37:02.616Z,1022.9
2024-05-09T12:38:02.597Z,1023
2024-05-09T12:39:02.447Z,1022.9
2024-05-09T12:40:10.584Z,1022.9
2024-05-09T12:41:02.802Z,1023
2024-05-09T12:42:02.551Z,1022.9
2024-05-09T12:43:03.073Z,1023
2024-05-09T12:44:01.799Z,1023
2024-05-09T12:45:02.441Z,1023
2024-05-09T12:46:03.049Z,1023
2024-05-09T12:47:01.711Z,1023
2024-05-09T12:48:02.880Z,1023
2024-05-09T12:49:03.591Z,1022.9
2024-05-09T12:50:08.136Z,1022.9
2024-05-09T12:51:02.422Z,1022.8
2024-05-09T12:52:02.483Z,1022.8
2024-05-09T12:53:05.375Z,1022.7